Time;durP1;ratioP1;P1;durP2;ratioP2;P2;SDS_P1;SDS_P2;PMS_P1;PMS_P2;Temp;Humidity;BMP_temperature;BMP_pressure;BME280_temperature;BME280_humidity;BME280_pressure;Samples;Min_cycle;Max_cycle;Signal;HPM_P1;HPM_P2
2022/10/03 00:00:59;;;;;;;7.10;1.48;;;;;;;14.11;67.67;102678.44;6213387;22;20740;-75
2022/10/03 00:03:41;;;;;;;7.75;1.20;;;;;;;14.09;67.86;102679.22;6214906;22;20008;-76
2022/10/03 00:06:14;;;;;;;6.18;1.20;;;;;;;14.05;67.70;102685.25;6213404;22;20610;-74
2022/10/03 00:09:04;;;;;;;7.75;1.42;;;;;;;14.00;67.74;102690.38;6221161;23;20173;-75
2022/10/03 00:11:51;;;;;;;5.00;0.95;;;;;;;14.00;67.44;102686.84;6212706;22;20062;-76
2022/10/03 00:14:51;;;;;;;7.00;1.30;;;;;;;14.00;67.65;102687.75;6218088;23;20462;-74
2022/10/03 00:17:40;;;;;;;6.75;1.40;;;;;;;13.98;67.71;102689.41;6217700;23;20016;-74
2022/10/03 00:20:29;;;;;;;5.32;1.42;;;;;;;13.96;67.81;102680.66;6218753;22;20654;-75
2022/10/03 00:23:03;;;;;;;8.65;1.33;;;;;;;13.94;67.60;102691.91;6221296;22;20706;-75
2022/10/03 00:25:38;;;;;;;5.90;1.40;;;;;;;13.87;67.54;102690.84;6209201;22;20020;-74
2022/10/03 00:28:08;;;;;;;8.18;1.40;;;;;;;13.82;68.06;102692.47;6218931;22;20004;-75
2022/10/03 00:31:23;;;;;;;6.95;1.17;;;;;;;13.84;67.60;102696.03;6214868;22;20008;-75
2022/10/03 00:34:03;;;;;;;6.53;1.50;;;;;;;13.76;67.82;102698.41;6214380;22;20343;-74
2022/10/03 00:37:10;;;;;;;5.13;1.10;;;;;;;13.79;68.00;102703.72;6213906;22;20015;-76
2022/10/03 00:40:14;;;;;;;4.13;1.00;;;;;;;13.78;68.11;102717.69;6198506;22;20551;-76
2022/10/03 00:43:04;;;;;;;4.82;1.23;;;;;;;13.78;67.84;102720.31;6195275;23;20051;-75
2022/10/03 00:45:53;;;;;;;4.63;1.10;;;;;;;13.77;68.02;102722.91;6227564;22;20132;-76
2022/10/03 00:48:21;;;;;;;5.03;1.20;;;;;;;13.76;68.07;102718.50;6231144;22;20004;-75
2022/10/03 00:51:02;;;;;;;4.20;1.10;;;;;;;13.75;67.87;102724.56;6233103;23;20015;-76
2022/10/03 00:53:36;;;;;;;6.10;1.45;;;;;;;13.72;68.00;102729.75;6210345;22;20067;-74
2022/10/03 00:56:26;;;;;;;5.75;1.10;;;;;;;13.66;67.85;102725.19;6218957;23;20452;-74
2022/10/03 00:59:30;;;;;;;6.45;1.63;;;;;;;13.64;67.94;102729.50;6220043;22;20023;-74
2022/10/03 01:01:55;;;;;;;4.82;1.20;;;;;;;13.66;67.86;102735.66;6219865;22;20191;-75
2022/10/03 01:04:41;;;;;;;5.25;1.27;;;;;;;13.65;67.96;102736.53;6218314;23;20337;-74
2022/10/03 01:07:31;;;;;;;4.30;1.20;;;;;;;13.65;68.30;102741.78;6215249;22;20012;-75
2022/10/03 01:10:10;;;;;;;6.10;1.27;;;;;;;13.71;68.34;102733.22;6217454;22;20019;-75
2022/10/03 01:12:36;;;;;;;4.40;1.30;;;;;;;13.74;68.16;102738.53;6213909;22;20419;-75
2022/10/03 01:15:39;;;;;;;6.88;1.27;;;;;;;13.68;68.58;102735.72;6217012;23;20432;-75
2022/10/03 01:18:16;;;;;;;6.45;1.20;;;;;;;13.73;68.59;102739.38;6213402;22;20016;-76
2022/10/03 01:20:57;;;;;;;4.50;1.20;;;;;;;13.78;68.31;102741.28;6214575;22;20000;-76
2022/10/03 01:23:41;;;;;;;6.53;1.08;;;;;;;13.85;68.68;102741.44;6216544;22;20597;-75
2022/10/03 01:26:21;;;;;;;5.28;1.30;;;;;;;13.89;69.03;102728.50;6218906;23;20234;-76
2022/10/03 01:32:10;;;;;;;4.93;1.40;;;;;;;13.95;68.53;102725.16;6213388;22;20261;-74
2022/10/03 01:34:50;;;;;;;8.65;1.20;;;;;;;13.97;68.43;102723.47;6220150;22;20015;-74
2022/10/03 01:37:28;;;;;;;7.75;1.40;;;;;;;13.95;68.88;102733.03;6213646;22;20012;-76
2022/10/03 01:40:16;;;;;;;5.07;1.20;;;;;;;13.99;69.49;102732.28;6217704;23;20087;-74
2022/10/03 01:42:53;;;;;;;5.95;1.25;;;;;;;14.13;69.46;102741.44;6212523;22;20115;-74
2022/10/03 01:45:46;;;;;;;5.82;1.17;;;;;;;14.20;69.36;102738.16;6217033;23;20014;-74
2022/10/03 01:48:39;;;;;;;6.50;1.17;;;;;;;14.26;68.78;102734.78;6213170;23;20106;-74
2022/10/03 01:51:23;;;;;;;8.45;1.27;;;;;;;14.23;68.81;102738.22;6221995;22;20083;-75
2022/10/03 01:54:10;;;;;;;4.18;1.08;;;;;;;14.17;68.58;102736.31;6208384;22;20008;-76
2022/10/03 01:56:44;;;;;;;6.63;1.40;;;;;;;14.13;68.50;102741.44;6220579;23;20011;-76
2022/10/03 01:59:21;;;;;;;5.25;1.13;;;;;;;14.05;68.16;102743.81;6215506;23;20008;-75
2022/10/03 02:01:58;;;;;;;8.02;1.30;;;;;;;13.99;68.29;102742.75;6212025;22;20134;-74
2022/10/03 02:04:26;;;;;;;4.43;1.20;;;;;;;13.97;68.04;102742.72;6215768;22;20077;-74
2022/10/03 02:07:20;;;;;;;6.00;1.25;;;;;;;13.89;68.07;102748.59;6216040;22;20058;-74
2022/10/03 02:09:54;;;;;;;4.50;1.15;;;;;;;13.86;68.00;102746.75;6214006;23;20011;-74
2022/10/03 02:12:26;;;;;;;3.80;1.15;;;;;;;13.86;68.01;102743.25;6212596;22;20011;-74
2022/10/03 02:15:04;;;;;;;4.20;1.20;;;;;;;13.77;68.37;102754.34;6217087;22;20007;-75
2022/10/03 02:17:56;;;;;;;4.90;1.13;;;;;;;13.74;68.01;102752.53;6209386;22;20347;-75
2022/10/03 02:20:34;;;;;;;5.85;1.23;;;;;;;13.71;68.18;102747.19;6219474;22;20275;-76
2022/10/03 02:23:00;;;;;;;5.68;1.15;;;;;;;13.64;68.45;102752.19;6218056;22;20038;-75
2022/10/03 02:25:34;;;;;;;5.95;1.35;;;;;;;13.70;68.28;102755.91;6205303;23;20011;-75
2022/10/03 02:28:29;;;;;;;;;;;;;;;13.71;68.59;102747.19;6219023;23;20004;-74
2022/10/03 02:31:32;;;;;;;3.67;1.27;;;;;;;13.74;68.48;102744.66;6213808;22;19923;-75
2022/10/03 02:34:24;;;;;;;7.82;1.35;;;;;;;13.70;68.58;102740.19;6220192;23;20063;-76
2022/10/03 02:37:04;;;;;;;5.03;1.33;;;;;;;13.64;69.63;102736.47;6214227;22;20328;-74
2022/10/03 02:39:55;;;;;;;4.13;1.20;;;;;;;13.71;68.97;102739.34;6214629;22;20093;-75
2022/10/03 02:42:51;;;;;;;17.63;1.30;;;;;;;13.73;68.55;102736.75;6213616;22;20023;-76
2022/10/03 02:45:49;;;;;;;7.72;1.15;;;;;;;13.58;69.15;102741.53;6214345;22;20075;-76
2022/10/03 02:48:33;;;;;;;4.72;1.00;;;;;;;13.61;68.57;102741.59;6212949;22;20059;-74
2022/10/03 02:51:10;;;;;;;4.18;1.13;;;;;;;13.61;68.46;102739.88;6218808;23;20331;-76
2022/10/03 02:54:15;;;;;;;7.40;1.20;;;;;;;13.55;68.56;102747.56;6209376;22;20487;-75
2022/10/03 02:56:47;;;;;;;4.50;1.23;;;;;;;13.54;68.64;102750.16;6201975;22;20348;-75
2022/10/03 02:59:43;;;;;;;4.30;1.10;;;;;;;13.51;68.75;102753.56;6217690;22;20000;-75
2022/10/03 03:02:35;;;;;;;6.07;1.30;;;;;;;13.51;68.45;102744.81;6218486;23;20012;-75
2022/10/03 03:05:19;;;;;;;7.75;1.48;;;;;;;13.44;68.70;102746.34;6219271;23;20011;-75
2022/10/03 03:08:06;;;;;;;6.43;1.25;;;;;;;13.38;69.45;102757.50;6210487;22;20460;-76
2022/10/03 03:10:44;;;;;;;5.40;1.23;;;;;;;13.44;69.28;102756.81;6217056;22;20008;-75
2022/10/03 03:13:40;;;;;;;5.90;1.23;;;;;;;13.42;69.33;102749.78;6214683;22;20424;-74
2022/10/03 03:16:11;;;;;;;2.78;1.02;;;;;;;13.42;69.08;102750.63;6215359;22;20005;-74
2022/10/03 03:19:15;;;;;;;5.05;1.20;;;;;;;13.38;68.62;102752.28;6213588;22;20016;-74
2022/10/03 03:21:55;;;;;;;5.20;1.40;;;;;;;13.34;68.59;102753.03;6213092;22;20522;-75
2022/10/03 03:25:00;;;;;;;5.97;1.20;;;;;;;13.32;68.67;102757.31;6211595;22;20008;-75
2022/10/03 03:28:03;;;;;;;6.22;1.30;;;;;;;13.30;68.57;102759.00;6215266;22;20000;-75
2022/10/03 03:30:36;;;;;;;5.85;1.27;;;;;;;13.32;68.71;102753.81;6214885;22;20066;-76
2022/10/03 03:33:15;;;;;;;4.60;1.17;;;;;;;13.37;69.05;102754.84;6220965;22;20016;-75
2022/10/03 03:35:50;;;;;;;7.85;1.42;;;;;;;13.42;69.93;102752.38;6206154;22;20279;-76
2022/10/03 03:38:18;;;;;;;5.10;1.50;;;;;;;13.59;69.98;102756.41;6218512;22;20008;-76
2022/10/03 03:40:56;;;;;;;5.97;1.50;;;;;;;13.72;70.45;102756.81;6219099;23;20489;-75
2022/10/03 03:43:28;;;;;;;6.18;1.38;;;;;;;13.82;70.23;102756.28;6210508;22;20531;-76
2022/10/03 03:46:12;;;;;;;6.25;1.40;;;;;;;13.95;70.45;102757.53;6217752;22;20008;-75
2022/10/03 03:48:46;;;;;;;5.80;1.40;;;;;;;14.06;70.50;102756.09;6214622;22;20012;-75
2022/10/03 03:51:35;;;;;;;;;;;;;;;14.15;70.34;102758.06;6218370;22;20476;-73
2022/10/03 03:54:37;;;;;;;7.35;1.80;;;;;;;14.18;70.48;102760.81;6203206;22;19920;-76
2022/10/03 03:57:13;;;;;;;4.20;1.40;;;;;;;14.19;70.74;102760.88;6220706;22;20004;-75
2022/10/03 03:59:56;;;;;;;7.32;1.60;;;;;;;14.37;70.41;102760.53;6214356;22;20670;-74
2022/10/03 04:02:57;;;;;;;5.28;1.30;;;;;;;14.45;70.24;102758.13;6219765;23;20666;-75
2022/10/03 04:05:26;;;;;;;4.15;1.38;;;;;;;14.51;70.06;102764.41;6210969;23;20336;-74
2022/10/03 04:07:54;;;;;;;4.82;1.30;;;;;;;14.55;70.03;102763.66;6217374;22;20101;-75
2022/10/03 04:10:37;;;;;;;3.58;1.17;;;;;;;14.60;70.32;102753.25;6221391;23;20126;-75
2022/10/03 04:13:30;;;;;;;5.05;1.40;;;;;;;14.58;70.27;102758.47;6214554;22;20424;-75
2022/10/03 04:16:03;;;;;;;5.75;1.20;;;;;;;14.70;69.73;102762.28;6220295;23;20087;-75
2022/10/03 04:21:44;;;;;;;9.00;1.50;;;;;;;14.77;69.93;102766.81;6217248;23;20066;-75
2022/10/03 04:24:35;;;;;;;6.85;1.48;;;;;;;14.84;69.75;102760.88;6214669;22;20004;-75
2022/10/03 04:27:03;;;;;;;3.60;1.20;;;;;;;14.87;69.78;102761.00;6219664;23;20313;-74
2022/10/03 04:29:40;;;;;;;5.95;1.35;;;;;;;14.90;69.84;102767.19;6209738;22;20459;-75
2022/10/03 04:32:33;;;;;;;4.85;1.40;;;;;;;14.91;69.54;102762.81;6218167;22;20090;-74
2022/10/03 04:35:23;;;;;;;5.13;1.40;;;;;;;14.93;69.45;102764.66;6218390;23;20016;-74
2022/10/03 04:38:16;;;;;;;4.55;1.38;;;;;;;14.90;69.17;102771.56;6213539;22;20507;-74
2022/10/03 04:40:52;;;;;;;5.97;1.40;;;;;;;14.83;68.92;102777.50;6218875;23;20148;-75
2022/10/03 04:43:45;;;;;;;3.88;1.33;;;;;;;14.78;69.02;102779.13;6211790;22;20039;-75
2022/10/03 04:46:39;;;;;;;3.47;1.27;;;;;;;14.82;69.35;102775.75;6217087;23;20644;-74
2022/10/03 04:49:37;;;;;;;6.15;1.40;;;;;;;14.83;69.60;102777.50;6214705;22;20031;-75
2022/10/03 04:52:15;;;;;;;6.95;2.50;;;;;;;14.87;69.69;102776.75;6217462;22;20508;-74
2022/10/03 04:55:03;;;;;;;6.63;1.85;;;;;;;14.92;69.66;102768.13;6212450;22;20118;-74
2022/10/03 04:57:55;;;;;;;4.45;1.40;;;;;;;14.95;69.72;102769.94;6216054;22;20170;-76
2022/10/03 05:00:23;;;;;;;6.45;1.67;;;;;;;14.99;69.72;102770.06;6215175;22;20448;-75
2022/10/03 05:03:00;;;;;;;7.68;1.83;;;;;;;15.02;69.77;102770.13;6221769;22;20008;-74
2022/10/03 05:05:28;;;;;;;5.10;1.48;;;;;;;15.09;69.64;102770.28;6215270;22;20054;-75
2022/10/03 05:08:05;;;;;;;6.80;1.70;;;;;;;15.12;69.49;102773.00;6219274;23;20015;-74
2022/10/03 05:10:42;;;;;;;6.88;1.50;;;;;;;15.15;69.72;102771.31;6221405;22;20019;-73
2022/10/03 05:13:28;;;;;;;5.68;1.40;;;;;;;15.17;69.59;102772.25;6215424;22;20015;-77
2022/10/03 05:16:35;;;;;;;6.63;1.70;;;;;;;15.19;69.61;102765.28;6219461;22;20030;-75
2022/10/03 05:19:06;;;;;;;6.65;2.08;;;;;;;15.23;69.48;102769.78;6213440;23;20016;-74
2022/10/03 05:21:44;;;;;;;7.20;1.70;;;;;;;15.26;69.54;102775.09;6215180;23;20007;-74
2022/10/03 05:24:18;;;;;;;5.82;1.60;;;;;;;15.28;69.42;102775.16;6214364;22;20008;-75
2022/10/03 05:26:57;;;;;;;7.22;1.67;;;;;;;15.30;69.35;102770.81;6221611;22;20575;-74
2022/10/03 05:29:42;;;;;;;7.03;1.90;;;;;;;15.34;69.37;102778.81;6215631;23;20217;-74
2022/10/03 05:32:45;;;;;;;7.60;2.00;;;;;;;15.34;69.27;102785.81;6220343;22;20012;-75
2022/10/03 05:35:29;;;;;;;6.38;1.90;;;;;;;15.36;69.25;102774.50;6218181;23;20012;-74
2022/10/03 05:38:12;;;;;;;9.10;1.83;;;;;;;15.36;69.13;102776.22;6218875;22;20022;-75
2022/10/03 05:40:46;;;;;;;6.50;1.95;;;;;;;15.38;69.01;102783.28;6220100;23;20015;-74
2022/10/03 05:43:35;;;;;;;5.93;2.03;;;;;;;15.36;68.97;102785.00;6212873;22;20023;-76
2022/10/03 05:46:26;;;;;;;8.00;2.00;;;;;;;15.37;68.94;102789.38;6221166;22;20015;-76
2022/10/03 05:49:30;;;;;;;4.72;1.88;;;;;;;15.37;68.97;102770.97;6216216;22;20343;-76
2022/10/03 05:52:33;;;;;;;5.53;1.67;;;;;;;15.39;69.02;102787.69;6219534;22;20459;-76
2022/10/03 05:55:10;;;;;;;7.03;1.95;;;;;;;15.36;68.73;102779.75;6212356;22;20012;-74
2022/10/03 05:58:13;;;;;;;7.65;2.00;;;;;;;15.27;68.99;102784.75;6215876;23;20039;-76
2022/10/03 06:00:57;;;;;;;6.25;1.92;;;;;;;15.22;69.14;102785.50;6212017;22;20440;-76
2022/10/03 06:03:41;;;;;;;8.98;1.90;;;;;;;15.24;68.93;102794.31;6215869;23;20008;-75
2022/10/03 06:06:28;;;;;;;4.38;1.88;;;;;;;15.22;68.66;102798.66;6212313;22;20008;-76
2022/10/03 06:09:26;;;;;;;7.43;1.98;;;;;;;15.16;68.86;102786.25;6219967;23;20342;-75
2022/10/03 06:12:13;;;;;;;8.50;2.10;;;;;;;15.17;69.05;102793.28;6200377;22;20009;-75
2022/10/03 06:15:08;;;;;;;8.02;2.15;;;;;;;15.19;69.01;102785.41;6216472;22;20008;-76
2022/10/03 06:17:55;;;;;;;7.78;2.00;;;;;;;15.23;69.30;102788.19;6212492;22;20007;-76
2022/10/03 06:20:58;;;;;;;5.75;2.00;;;;;;;15.29;69.43;102788.31;6216891;22;20004;-75
2022/10/03 06:23:46;;;;;;;5.78;2.10;;;;;;;15.28;69.78;102794.44;6210359;23;20039;-73
2022/10/03 06:26:44;;;;;;;8.38;1.90;;;;;;;15.43;70.02;102796.53;6218222;22;20009;-75
2022/10/03 06:29:47;;;;;;;5.60;1.92;;;;;;;15.59;69.73;102793.47;6187714;22;20358;-75
2022/10/03 06:32:44;;;;;;;7.72;2.17;;;;;;;15.71;69.50;102799.00;6217077;23;20073;-75
2022/10/03 06:35:29;;;;;;;7.93;2.20;;;;;;;15.80;69.51;102800.94;6215398;22;20475;-74
2022/10/03 06:38:12;;;;;;;5.70;1.90;;;;;;;15.99;69.24;102807.47;6219682;23;20420;-75
2022/10/03 06:40:56;;;;;;;7.50;2.10;;;;;;;16.25;69.13;102806.31;6213184;23;20011;-75
2022/10/03 06:44:01;;;;;;;9.30;2.25;;;;;;;16.46;66.95;102811.13;6206252;22;20016;-76
2022/10/03 06:46:38;;;;;;;5.60;2.40;;;;;;;16.53;66.65;102810.38;6216221;22;20018;-75
2022/10/03 06:49:41;;;;;;;10.75;2.80;;;;;;;16.63;65.53;102815.91;6213663;22;20333;-75
2022/10/03 06:52:27;;;;;;;9.35;2.53;;;;;;;16.59;65.62;102813.13;6217386;22;20008;-75
2022/10/03 06:55:14;;;;;;;7.65;2.40;;;;;;;16.57;65.32;102813.13;6207419;22;20008;-76
2022/10/03 06:57:48;;;;;;;13.52;2.47;;;;;;;16.60;65.50;102812.31;6209545;22;20071;-75
2022/10/03 07:00:20;;;;;;;11.18;2.83;;;;;;;16.59;65.47;102818.38;6209922;23;20016;-74
2022/10/03 07:03:04;;;;;;;8.90;2.38;;;;;;;16.58;65.41;102821.91;6216287;22;20018;-74
2022/10/03 07:05:47;;;;;;;14.52;2.80;;;;;;;16.53;65.77;102824.44;6206038;22;20160;-73
2022/10/03 07:08:27;;;;;;;7.55;2.33;;;;;;;16.57;65.79;102828.03;6218549;22;20375;-74
2022/10/03 07:11:30;;;;;;;10.98;2.70;;;;;;;16.56;65.58;102834.16;6218728;22;20122;-75
2022/10/03 07:14:54;;;;;;;7.97;2.20;;;;;;;16.58;66.05;102833.34;6216281;23;20300;-75
2022/10/03 07:17:51;;;;;;;8.05;2.65;;;;;;;16.65;66.40;102830.84;6184656;23;20035;-75
2022/10/03 07:20:57;;;;;;;7.35;2.80;;;;;;;16.64;65.59;102837.88;6152336;23;20012;-75
2022/10/03 07:23:44;;;;;;;12.10;2.90;;;;;;;16.45;66.47;102846.22;6215353;22;20243;-75
2022/10/03 07:26:33;;;;;;;10.10;2.83;;;;;;;16.71;65.88;102838.88;6217565;23;20008;-75
2022/10/03 07:29:33;;;;;;;10.93;3.08;;;;;;;16.71;65.63;102838.88;6216466;23;20511;-74
2022/10/03 07:32:08;;;;;;;8.65;2.78;;;;;;;16.80;65.40;102839.03;6217496;23;20647;-74
2022/10/03 07:34:52;;;;;;;9.05;2.90;;;;;;;16.90;65.37;102841.84;6178103;23;20038;-73
2022/10/03 07:40:42;;;;;;;9.95;3.00;;;;;;;16.94;64.62;102835.81;6208635;23;20486;-75
2022/10/03 07:43:27;;;;;;;9.55;3.20;;;;;;;17.10;63.63;102838.69;6210684;22;20059;-74
2022/10/03 07:46:04;;;;;;;9.85;3.40;;;;;;;17.14;63.47;102830.00;6215323;23;20107;-76
2022/10/03 07:49:01;;;;;;;11.77;3.47;;;;;;;17.33;63.20;102840.88;6212927;22;20016;-76
2022/10/03 07:51:52;;;;;;;15.40;3.47;;;;;;;17.45;63.13;102837.53;6210415;22;20069;-75
2022/10/03 07:54:48;;;;;;;11.40;3.40;;;;;;;17.66;63.31;102837.03;6197486;22;20060;-75
2022/10/03 07:57:36;;;;;;;7.95;3.47;;;;;;;17.87;62.31;102847.91;6217462;22;20027;-74
2022/10/03 08:00:09;;;;;;;11.30;3.25;;;;;;;18.03;62.33;102849.03;6213503;22;20412;-74
2022/10/03 08:03:07;;;;;;;11.98;3.20;;;;;;;18.13;61.83;102859.72;6217538;22;20546;-74
2022/10/03 08:05:52;;;;;;;12.57;3.60;;;;;;;18.18;61.58;102859.78;6207801;22;20111;-75
2022/10/03 08:08:40;;;;;;;10.75;3.50;;;;;;;18.37;61.42;102858.28;6217684;23;20043;-74
2022/10/03 08:11:13;;;;;;;10.80;3.70;;;;;;;18.35;60.98;102868.84;6215685;23;20012;-75
2022/10/03 08:13:56;;;;;;;12.57;3.75;;;;;;;18.53;61.21;102862.91;6208367;22;20011;-75
2022/10/03 08:16:41;;;;;;;10.75;4.00;;;;;;;18.58;60.78;102855.94;6214151;23;20072;-75
2022/10/03 08:19:21;;;;;;;14.25;3.90;;;;;;;18.62;60.40;102863.03;6213943;22;20011;-74
2022/10/03 08:22:18;;;;;;;11.68;3.72;;;;;;;18.68;60.10;102865.72;6213480;23;20131;-74
2022/10/03 08:25:09;;;;;;;11.65;3.88;;;;;;;18.74;59.92;102870.19;6128315;22;20020;-75
2022/10/03 08:27:39;;;;;;;15.20;4.80;;;;;;;18.73;60.41;102865.78;6203570;22;20008;-75
2022/10/03 08:30:17;;;;;;;16.10;4.70;;;;;;;18.88;60.29;102865.97;6235738;22;20012;-75
2022/10/03 08:32:55;;;;;;;14.38;4.40;;;;;;;19.15;59.54;102871.50;6218468;22;20474;-76
2022/10/03 08:35:51;;;;;;;12.38;4.13;;;;;;;19.25;58.86;102860.19;6216540;22;20067;-77
2022/10/03 08:38:32;;;;;;;15.63;4.38;;;;;;;19.24;58.39;102865.44;6217941;22;20008;-75
2022/10/03 08:41:43;;;;;;;11.60;4.47;;;;;;;19.38;58.19;102867.34;6219058;22;20062;-76
2022/10/03 08:44:36;;;;;;;15.48;5.05;;;;;;;19.32;58.18;102871.69;6215718;22;20016;-75
2022/10/03 08:47:24;;;;;;;12.75;4.22;;;;;;;19.50;58.63;102863.06;6215854;23;20008;-77
2022/10/03 08:50:13;;;;;;;14.82;4.47;;;;;;;19.41;58.31;102856.78;6209564;23;20016;-77
2022/10/03 08:52:59;;;;;;;12.60;4.25;;;;;;;19.75;57.96;102855.34;6219401;23;20390;-75
2022/10/03 08:55:41;;;;;;;13.27;4.53;;;;;;;19.70;57.74;102853.53;6198322;22;20315;-76
2022/10/03 08:58:25;;;;;;;14.07;4.25;;;;;;;19.76;57.24;102857.06;6213757;22;20004;-74
2022/10/03 09:01:34;;;;;;;13.35;4.28;;;;;;;19.79;58.08;102862.41;6215802;22;20016;-76
2022/10/03 09:04:21;;;;;;;13.55;4.30;;;;;;;20.05;56.88;102856.41;6205508;23;20399;-77
2022/10/03 09:07:12;;;;;;;14.13;4.05;;;;;;;20.25;56.82;102854.72;6208533;22;20024;-76
2022/10/03 09:09:56;;;;;;;15.65;3.80;;;;;;;20.35;55.86;102853.03;6213530;23;20047;-76
2022/10/03 09:12:41;;;;;;;12.52;3.60;;;;;;;20.21;55.89;102853.81;6211501;22;20039;-75
2022/10/03 09:15:52;;;;;;;11.50;3.40;;;;;;;20.49;55.94;102852.19;6213864;23;20440;-76
2022/10/03 09:18:41;;;;;;;11.35;3.67;;;;;;;20.41;56.56;102853.97;6212997;22;20016;-75
2022/10/03 09:21:32;;;;;;;12.43;3.28;;;;;;;20.44;56.19;102848.66;6216817;23;20008;-76
2022/10/03 09:24:14;;;;;;;12.05;3.58;;;;;;;20.59;56.06;102859.31;6230639;22;20043;-75
2022/10/03 09:26:51;;;;;;;8.55;2.95;;;;;;;20.30;55.86;102846.81;6213336;22;20028;-76
2022/10/03 09:29:38;;;;;;;8.98;3.03;;;;;;;20.61;55.29;102846.94;6214575;23;20008;-76
2022/10/03 09:32:07;;;;;;;10.35;2.90;;;;;;;20.53;55.38;102855.75;6214140;23;20019;-74
2022/10/03 09:35:02;;;;;;;12.85;3.10;;;;;;;20.31;55.93;102857.38;6215523;23;20036;-75
2022/10/03 09:37:42;;;;;;;8.88;3.08;;;;;;;20.39;56.53;102868.94;6196867;22;20147;-75
2022/10/03 09:40:38;;;;;;;13.93;3.30;;;;;;;20.37;56.43;102862.75;6214312;23;20014;-75
2022/10/03 09:43:16;;;;;;;9.95;3.33;;;;;;;20.28;56.58;102854.75;6208786;22;20398;-77
2022/10/03 09:45:44;;;;;;;8.85;3.00;;;;;;;20.45;56.20;102852.19;6211081;22;20014;-75
2022/10/03 09:48:36;;;;;;;10.60;3.25;;;;;;;20.29;56.16;102850.34;6213053;22;20012;-75
2022/10/03 09:51:08;;;;;;;11.48;3.50;;;;;;;20.23;57.16;102845.91;6217431;23;20007;-76
2022/10/03 09:53:48;;;;;;;10.27;3.10;;;;;;;20.17;57.64;102845.88;6205720;22;20018;-76
2022/10/03 09:56:49;;;;;;;9.98;3.42;;;;;;;20.07;57.67;102849.31;6218392;23;20008;-75
2022/10/03 09:59:55;;;;;;;11.52;3.33;;;;;;;20.09;58.16;102851.13;6206180;22;20379;-74
2022/10/03 10:02:42;;;;;;;11.05;3.20;;;;;;;20.18;57.88;102847.66;6227100;22;20421;-75
2022/10/03 10:05:22;;;;;;;9.52;3.28;;;;;;;20.08;58.63;102851.97;6207139;23;20008;-75
2022/10/03 10:08:03;;;;;;;13.48;3.22;;;;;;;19.77;59.59;102853.56;6197468;22;20016;-75
2022/10/03 10:10:29;;;;;;;11.18;2.95;;;;;;;19.91;59.55;102847.47;6203911;23;20015;-75
2022/10/03 10:13:38;;;;;;;10.20;2.75;;;;;;;20.03;59.23;102851.09;6208313;22;20015;-75
2022/10/03 10:16:20;;;;;;;13.88;3.20;;;;;;;19.75;60.13;102850.03;6216771;22;20757;-75
2022/10/03 10:18:59;;;;;;;10.77;2.83;;;;;;;20.15;59.52;102848.50;6211089;22;20008;-76
2022/10/03 10:21:24;;;;;;;15.85;3.08;;;;;;;20.36;58.61;102846.88;6210627;22;20016;-75
2022/10/03 10:24:10;;;;;;;7.65;2.65;;;;;;;20.41;57.88;102848.66;6211457;22;20007;-76
2022/10/03 10:27:06;;;;;;;11.45;3.10;;;;;;;20.24;58.23;102852.97;6217215;22;20036;-74
2022/10/03 10:29:56;;;;;;;7.32;2.45;;;;;;;20.49;58.35;102861.94;6209295;22;20035;-74
2022/10/03 10:32:40;;;;;;;11.88;2.80;;;;;;;20.50;58.10;102850.44;6217326;22;20232;-74
2022/10/03 10:35:39;;;;;;;9.85;2.50;;;;;;;20.46;58.97;102851.31;6213753;22;20542;-74
2022/10/03 10:38:29;;;;;;;9.50;2.45;;;;;;;20.50;58.72;102853.97;6217746;22;20503;-74
2022/10/03 10:40:58;;;;;;;7.05;2.45;;;;;;;20.64;58.21;102848.72;6214979;22;20913;-75
2022/10/03 10:44:10;;;;;;;8.35;2.38;;;;;;;20.69;58.35;102843.44;6200224;22;20757;-75
2022/10/03 10:46:48;;;;;;;11.07;2.60;;;;;;;20.39;58.76;102857.47;6217580;23;20526;-74
2022/10/03 10:49:46;;;;;;;8.98;2.67;;;;;;;20.22;59.82;102845.00;6213628;23;20012;-76
2022/10/03 10:52:50;;;;;;;10.68;2.67;;;;;;;20.26;59.93;102845.91;6219556;22;20090;-76
2022/10/03 10:55:37;;;;;;;10.57;2.88;;;;;;;20.36;59.79;102846.88;6215613;22;20027;-74
2022/10/03 10:58:40;;;;;;;8.77;2.75;;;;;;;20.36;59.67;102847.75;6219216;23;20004;-75
2022/10/03 11:01:36;;;;;;;9.55;2.60;;;;;;;20.22;60.48;102852.94;6214673;22;20515;-75
2022/10/03 11:04:24;;;;;;;12.75;3.00;;;;;;;20.07;61.07;102839.63;6218443;23;20367;-75
2022/10/03 11:07:16;;;;;;;7.90;2.75;;;;;;;20.25;60.65;102846.75;6216172;22;20740;-75
2022/10/03 11:09:59;;;;;;;11.25;2.65;;;;;;;20.23;60.50;102848.53;6217834;22;20837;-75
2022/10/03 11:12:59;;;;;;;7.55;2.60;;;;;;;20.13;60.34;102857.28;6215426;22;20090;-76
2022/10/03 11:16:02;;;;;;;10.77;2.75;;;;;;;20.09;59.77;102860.81;6216867;22;20746;-74
2022/10/03 11:18:48;;;;;;;9.70;2.63;;;;;;;20.12;59.46;102856.44;6214152;22;20432;-76
2022/10/03 11:21:58;;;;;;;10.07;2.50;;;;;;;19.90;58.91;102849.22;6217761;22;20000;-75
2022/10/03 11:24:52;;;;;;;11.30;2.30;;;;;;;20.22;58.13;102849.41;6192748;22;20319;-75
2022/10/03 11:27:41;;;;;;;8.07;2.20;;;;;;;20.26;57.06;102852.06;6216798;23;20508;-76
2022/10/03 11:30:44;;;;;;;8.70;2.08;;;;;;;20.25;53.98;102854.72;6214644;22;20012;-75
2022/10/03 11:33:31;;;;;;;8.73;1.90;;;;;;;20.35;54.07;102845.09;6214591;23;20118;-75
2022/10/03 11:36:12;;;;;;;7.05;2.03;;;;;;;20.37;53.36;102841.56;6210932;22;20020;-75
2022/10/03 11:38:55;;;;;;;9.20;2.00;;;;;;;20.42;53.30;102842.50;6219827;23;20572;-75
2022/10/03 11:41:32;;;;;;;9.23;1.85;;;;;;;20.32;53.06;102837.09;6219007;22;20008;-75
2022/10/03 11:44:19;;;;;;;6.70;1.80;;;;;;;20.29;53.50;102832.69;6216741;22;20438;-76
2022/10/03 11:47:22;;;;;;;8.98;2.13;;;;;;;20.12;53.24;102837.91;6214668;22;20908;-75
2022/10/03 11:50:11;;;;;;;11.40;2.13;;;;;;;20.23;53.34;102837.94;6207435;22;20020;-75
2022/10/03 11:52:42;;;;;;;10.13;2.03;;;;;;;20.18;53.87;102834.41;6216303;22;20016;-75
2022/10/03 11:55:34;;;;;;;9.48;2.38;;;;;;;20.29;53.89;102837.09;6210011;22;20349;-74
2022/10/03 11:58:07;;;;;;;9.90;2.10;;;;;;;20.30;54.39;102839.75;6216337;22;20054;-76
2022/10/03 12:00:36;;;;;;;8.73;2.42;;;;;;;20.32;54.17;102837.09;6212927;22;20012;-76
2022/10/03 12:03:18;;;;;;;9.55;2.35;;;;;;;20.41;53.71;102832.75;6214504;22;20392;-76
2022/10/03 12:08:58;;;;;;;12.07;2.20;;;;;;;20.43;54.36;102833.63;6220912;23;20063;-75
2022/10/03 12:11:28;;;;;;;12.00;2.40;;;;;;;20.49;54.65;102833.66;6212174;22;20008;-75
2022/10/03 12:14:08;;;;;;;10.65;2.55;;;;;;;20.48;54.84;102833.66;6203805;22;20016;-75
2022/10/03 12:16:40;;;;;;;9.10;2.28;;;;;;;20.44;55.18;102831.88;6217484;23;20489;-76
2022/10/03 12:19:29;;;;;;;10.75;2.67;;;;;;;20.40;55.10;102825.69;6214166;22;20019;-75
2022/10/03 12:22:08;;;;;;;10.23;2.65;;;;;;;20.45;55.30;102823.94;6218708;22;20004;-74
2022/10/03 12:24:41;;;;;;;9.77;2.58;;;;;;;20.47;55.71;102821.31;6211618;22;20543;-74
2022/10/03 12:27:18;;;;;;;12.77;2.85;;;;;;;20.34;56.17;102819.47;6217275;22;20577;-75
2022/10/03 12:29:57;;;;;;;7.22;2.35;;;;;;;20.45;56.04;102815.09;6209639;22;20101;-75
2022/10/03 12:32:28;;;;;;;12.20;3.05;;;;;;;20.55;55.37;102816.91;6219521;22;20015;-74
2022/10/03 12:34:54;;;;;;;10.98;3.03;;;;;;;20.54;56.36;102821.34;6216540;22;20424;-75
2022/10/03 12:37:25;;;;;;;12.63;3.20;;;;;;;20.48;56.04;102816.00;6210732;23;20006;-75
2022/10/03 12:40:00;;;;;;;11.90;2.80;;;;;;;20.76;55.38;102818.72;6214196;23;20197;-75
2022/10/03 12:42:52;;;;;;;13.50;2.80;;;;;;;20.77;55.69;102809.88;6209720;22;20027;-74
2022/10/03 12:45:30;;;;;;;9.57;2.83;;;;;;;20.74;54.97;102810.75;6216603;23;20349;-75
2022/10/03 12:48:15;;;;;;;10.65;2.83;;;;;;;20.78;56.04;102807.25;6211695;22;20004;-75
2022/10/03 12:50:43;;;;;;;11.13;3.13;;;;;;;20.49;55.90;102812.47;6219010;23;20015;-74
2022/10/03 12:53:14;;;;;;;12.98;3.47;;;;;;;20.65;55.99;102808.09;6213616;23;20039;-76
2022/10/03 12:55:56;;;;;;;14.48;3.08;;;;;;;20.62;55.69;102806.31;6205893;22;20089;-75
2022/10/03 12:58:35;;;;;;;10.10;3.28;;;;;;;20.47;56.24;102803.63;6216697;22;20004;-74
2022/10/03 13:01:37;;;;;;;11.32;3.30;;;;;;;20.53;56.43;102805.41;6211660;22;20039;-74